• Join FlightAware (Why Join?)
  • Login
  • US Flag 
08:53AM EDT


 

Airport Tracker/Info


-or-


 

Live Flight TrackerFlight Track Log ✈ N749PG ✈ 05-Jul-2014 ✈ KAVL - KLUK

Flight Track Log - Related Links

Times and Time Zones

All times are in EDT time to prevent confusion due to time zone crossing. See the N749PG flight status page for this flight to view local times or setup timezone preferences in your user account.

Time Position Orientation Groundspeed Altitude Reporting Facility
EDT Latitude Longitude Course Direction KTS MPH feet Rate Location/Type
09:02AM 35.5778 -82.6136 338° Northwest 137 158 6,000  Level Indianapolis Center
09:03AM 35.6125 -82.6308 338° Northwest 136 157 6,800 720 Climbing Indianapolis Center
09:04AM 35.6915 -82.6540 338° Northwest  Level FlightAware Approximate
09:04AM 35.6450 -82.6481 337° Northwest 131 151 7,500  Level Indianapolis Center
09:05AM 35.7342 -82.6753 338° Northwest  Level FlightAware Approximate
09:05AM 35.6806 -82.6664 337° Northwest 132 152 7,900  Level Indianapolis Center
09:06AM 35.7769 -82.6966 338° Northwest  Level FlightAware Approximate
09:06AM 35.7208 -82.6839 341° North 148 170 8,000  Level Indianapolis Center
09:07AM 35.8196 -82.7179 338° Northwest  Level FlightAware Approximate
09:07AM 35.7633 -82.7053 338° Northwest 162 186 8,000  Level Indianapolis Center
09:08AM 35.8144 -82.7289 339° North 163 188 8,000 -60 Level Indianapolis Center
09:09AM 35.8578 -82.7511 337° Northwest 165 190 7,900 -60 Descending Indianapolis Center
09:10AM 35.9014 -82.7725 338° Northwest 165 190 7,900  Level Indianapolis Center
09:11AM 35.9439 -82.7942 338° Northwest 166 191 8,000  Climbing Indianapolis Center
09:12AM 35.9864 -82.8150 338° Northwest 165 190 8,000  Level Indianapolis Center
09:13AM 36.0292 -82.8367 338° Northwest 165 190 8,000  Level Indianapolis Center
09:14AM 36.0722 -82.8581 338° Northwest 165 190 8,000  Level Indianapolis Center
09:15AM 36.1228 -82.8825 339° North 166 191 8,000  Level Indianapolis Center
09:16AM 36.1658 -82.9036 338° Northwest 166 191 8,000  Level Indianapolis Center
09:17AM 36.2089 -82.9258 337° Northwest 166 191 8,000  Level Indianapolis Center
09:18AM 36.2528 -82.9464 339° North 166 191 8,000  Level Indianapolis Center
09:19AM 36.2958 -82.9683 338° Northwest 166 191 8,000  Level Indianapolis Center
09:20AM 36.3386 -82.9892 339° North 166 191 8,000  Level Indianapolis Center
09:21AM 36.3811 -83.0103 338° Northwest 165 190 8,000  Level Indianapolis Center
09:22AM 36.4303 -83.0364 337° Northwest 165 190 8,000  Level Indianapolis Center
09:24AM 36.4761 -83.0569 340° North 168 193 8,000  Level Indianapolis Center
09:25AM 36.5192 -83.0792 337° Northwest 168 193 8,000  Level Indianapolis Center
09:26AM 36.5631 -83.1011 338° Northwest 168 193 8,000  Level Indianapolis Center
09:27AM 36.6064 -83.1228 338° Northwest 168 193 8,000  Level Indianapolis Center
09:28AM 36.6500 -83.1442 339° North 168 193 8,000  Level Indianapolis Center
09:29AM 36.6925 -83.1658 338° Northwest 168 193 8,000  Level Indianapolis Center
09:30AM 36.7353 -83.1878 338° Northwest 167 192 8,000  Level Indianapolis Center
09:31AM 36.7858 -83.2125 339° North 167 192 8,000  Level Indianapolis Center
09:32AM 36.8283 -83.2344 338° Northwest 167 192 8,000  Level Indianapolis Center
09:33AM 36.8717 -83.2564 338° Northwest 167 192 8,000  Level Indianapolis Center
09:34AM 36.9150 -83.2772 339° North 167 192 8,000  Level Indianapolis Center
09:35AM 36.9578 -83.2989 338° Northwest 167 192 8,000  Level Indianapolis Center
09:36AM 37.0008 -83.3217 337° Northwest 167 192 8,000  Level Indianapolis Center
09:37AM 37.0442 -83.3425 339° North 167 192 8,000  Level Indianapolis Center
09:38AM 37.0942 -83.3681 338° Northwest 167 192 8,000  Level Indianapolis Center
09:39AM 37.1372 -83.3906 337° Northwest 166 191 8,000  Level Indianapolis Center
09:40AM 37.1792 -83.4114 338° Northwest 166 191 8,000  Level Indianapolis Center
09:41AM 37.2217 -83.4325 338° Northwest 166 191 8,000  Level Indianapolis Center
09:42AM 37.2647 -83.4553 337° Northwest 166 191 8,000  Level Indianapolis Center
09:43AM 37.3075 -83.4772 338° Northwest 166 191 8,000  Level Indianapolis Center
09:44AM 37.3511 -83.4997 338° Northwest 166 191 8,000  Level Indianapolis Center
09:45AM 37.4006 -83.5256 337° Northwest 166 191 8,000  Level Indianapolis Center
09:46AM 37.4450 -83.5483 338° Northwest 167 192 8,000  Level Indianapolis Center
09:47AM 37.4892 -83.5703 338° Northwest 167 192 8,000  Level Indianapolis Center
09:48AM 37.5319 -83.5933 337° Northwest 167 192 8,000  Level Indianapolis Center
09:49AM 37.5761 -83.6156 338° Northwest 167 192 8,000  Level Indianapolis Center
09:50AM 37.6200 -83.6383 338° Northwest 168 193 8,000  Level Indianapolis Center
09:51AM 37.6642 -83.6611 338° Northwest 168 193 8,000  Level Indianapolis Center
09:52AM 37.7150 -83.6878 337° Northwest 168 193 8,000  Level Indianapolis Center
09:53AM 37.7600 -83.7092 339° North 169 194 8,000  Level Indianapolis Center
09:54AM 37.8044 -83.7314 338° Northwest 169 194 8,000  Level Indianapolis Center
09:55AM 37.8472 -83.7558 336° Northwest 169 194 8,000  Level Indianapolis Center
09:56AM 37.8908 -83.7772 339° North 169 194 8,000  Level Indianapolis Center
09:57AM 37.9344 -83.8000 338° Northwest 169 194 8,000  Level Indianapolis Center
09:59AM 37.9778 -83.8231 337° Northwest 169 194 8,000  Level Indianapolis Center
10:00AM 38.0628 -83.8672 338° Northwest 134 154 8,000 -180 Level Indianapolis Center
10:01AM 38.1081 -83.8906 338° Northwest 168 193 7,600 -480 Descending Indianapolis Center
10:02AM 38.1572 -83.9142 339° North 181 208 7,100 -540 Descending Indianapolis Center
10:03AM 38.2067 -83.9414 337° Northwest 187 215 6,600 -540 Descending Indianapolis Center
10:04AM 38.2553 -83.9664 338° Northwest 189 217 6,100 -300 Descending Indianapolis Center
10:06AM 38.3028 -83.9928 336° Northwest 189 217 6,000 -60 Descending Indianapolis Center
10:07AM 38.3550 -84.0203 338° Northwest 179 206 6,000  Level Indianapolis Center
10:08AM 38.3992 -84.0436 338° Northwest 175 201 6,000  Level Indianapolis Center
10:09AM 38.4439 -84.0661 338° Northwest 175 201 6,000  Level Indianapolis Center
10:10AM 38.4883 -84.0900 337° Northwest 175 201 6,000 -300 Level Indianapolis Center
10:11AM 38.5381 -84.1181 336° Northwest 175 201 5,500 -540 Descending Indianapolis Center
10:12AM 38.5792 -84.1497 329° Northwest 180 207 5,000 -540 Descending Indianapolis Center
10:13AM 38.6367 -84.1736 342° North 182 209 4,400 -540 Descending Indianapolis Center
10:14AM 38.6878 -84.1833 352° North 182 209 4,000 -240 Descending Indianapolis Center
10:15AM 38.7364 -84.1992 346° North 182 209 4,000  Level Indianapolis Center
10:16AM 38.7822 -84.2139 346° North 177 204 4,000  Level Indianapolis Center
10:17AM 38.8233 -84.2275 346° North 174 200 4,000  Level Indianapolis Center
10:18AM 38.8808 -84.2478 345° North 174 200 4,000  Level Indianapolis Center
10:19AM 38.9267 -84.2639 345° North 174 200 4,000 -300 Level Indianapolis Center
10:20AM 38.9706 -84.2917 334° Northwest 174 200 3,500 -360 Descending Indianapolis Center
10:21AM 39.0131 -84.3206 332° Northwest 174 200 3,300 -600 Descending Indianapolis Center
10:23AM 39.1000 -84.3500 345° North 130 150 1,800 -720 Descending Cincinnati TRACON
10:24AM 39.1167 -84.3833 303° West 109 125 1,200 -600 Descending Cincinnati TRACON
10:26AM 39.1033 -84.4186 244° Southwest  Level Estimated